createdAt,value
2022-12-04T00:02:19.362Z,8.13
2022-12-04T00:06:23.472Z,9.20
2022-12-04T00:10:26.525Z,8.50
2022-12-04T00:14:29.236Z,9.53
2022-12-04T00:18:33.325Z,8.87
2022-12-04T00:22:35.980Z,9.07
2022-12-04T00:26:38.663Z,9.30
2022-12-04T00:30:42.223Z,8.87
2022-12-04T00:34:46.555Z,9.37
2022-12-04T00:38:49.893Z,8.60
2022-12-04T00:42:52.994Z,10.40
2022-12-04T00:46:55.627Z,10.47
2022-12-04T00:51:04.097Z,9.23
2022-12-04T00:55:07.912Z,10.40
2022-12-04T00:59:11.731Z,10.40
2022-12-04T01:03:14.655Z,10.43
2022-12-04T01:07:18.680Z,9.53
2022-12-04T01:11:22.389Z,9.20
2022-12-04T01:15:25.354Z,9.43
2022-12-04T01:19:28.060Z,9.03
2022-12-04T01:23:32.308Z,9.17
2022-12-04T01:27:35.391Z,9.20
2022-12-04T01:31:38.465Z,9.27
2022-12-04T01:35:41.186Z,9.20
2022-12-04T01:39:45.201Z,8.77
2022-12-04T01:44:09.321Z,9.70
2022-12-04T01:48:19.238Z,9.70
2022-12-04T01:52:23.786Z,9.27
2022-12-04T01:56:32.797Z,9.30
2022-12-04T02:00:35.623Z,9.10
2022-12-04T02:04:38.571Z,9.17
2022-12-04T02:08:41.371Z,9.10
2022-12-04T02:12:49.714Z,9.63
2022-12-04T02:16:58.298Z,8.97
2022-12-04T02:21:04.846Z,9.30
2022-12-04T02:25:15.992Z,8.80
2022-12-04T02:29:27.757Z,8.37
2022-12-04T02:33:35.120Z,8.70
2022-12-04T02:37:40.057Z,7.83
2022-12-04T02:41:45.516Z,8.53
2022-12-04T02:45:54.033Z,8.43
2022-12-04T02:49:59.914Z,8.30
2022-12-04T02:54:06.590Z,8.70
2022-12-04T02:58:14.291Z,8.43
2022-12-04T03:02:24.460Z,8.63
2022-12-04T03:06:29.537Z,8.37
2022-12-04T03:10:35.343Z,9.23
2022-12-04T03:14:41.107Z,8.37
2022-12-04T03:18:48.392Z,8.33
2022-12-04T03:22:54.747Z,8.50
2022-12-04T03:27:02.278Z,8.10
2022-12-04T03:31:08.217Z,8.40
2022-12-04T03:35:17.404Z,8.60
2022-12-04T03:39:22.578Z,7.60
2022-12-04T03:43:28.276Z,7.80
2022-12-04T03:47:35.939Z,8.13
2022-12-04T03:51:44.511Z,7.73
2022-12-04T03:55:50.794Z,6.57
2022-12-04T03:59:57.846Z,7.27
2022-12-04T04:04:02.093Z,7.30
2022-12-04T04:08:22.207Z,8.17
2022-12-04T04:12:28.087Z,7.87
2022-12-04T04:16:50.598Z,7.67
2022-12-04T04:21:15.249Z,7.23
2022-12-04T04:25:21.882Z,7.33
2022-12-04T04:29:24.963Z,7.20
2022-12-04T04:33:27.931Z,8.10
2022-12-04T04:37:34.413Z,7.17
2022-12-04T04:41:43.456Z,7.53
2022-12-04T04:45:47.959Z,7.90
2022-12-04T04:49:51.883Z,6.63
2022-12-04T04:53:57.493Z,7.20
2022-12-04T04:58:09.191Z,6.80
2022-12-04T05:02:12.399Z,6.90
2022-12-04T05:06:15.886Z,6.20
2022-12-04T05:10:18.536Z,6.77
2022-12-04T05:14:22.797Z,6.70
2022-12-04T05:18:25.496Z,6.60
2022-12-04T05:22:29.975Z,6.70
2022-12-04T05:26:32.691Z,6.30
2022-12-04T05:30:36.753Z,6.80
2022-12-04T05:34:40.007Z,6.33
2022-12-04T05:38:42.657Z,6.67
2022-12-04T05:42:45.648Z,6.60
2022-12-04T05:46:49.702Z,6.40
2022-12-04T05:50:52.721Z,6.07
2022-12-04T05:54:55.359Z,6.57
2022-12-04T05:58:58.319Z,6.07
2022-12-04T06:03:02.357Z,6.40
2022-12-04T06:07:05.044Z,6.27
2022-12-04T06:11:11.901Z,6.37
2022-12-04T06:15:14.571Z,5.90
2022-12-04T06:19:21.454Z,6.10
2022-12-04T06:23:24.427Z,6.10
2022-12-04T06:27:28.468Z,6.70
2022-12-04T06:31:33.913Z,6.73
2022-12-04T06:35:38.239Z,6.50
2022-12-04T06:39:40.909Z,6.80
2022-12-04T06:43:43.772Z,6.10
2022-12-04T06:47:46.732Z,6.20
2022-12-04T06:51:50.693Z,6.10
2022-12-04T06:55:53.327Z,6.30
2022-12-04T06:59:56.325Z,6.73
2022-12-04T07:04:01.092Z,6.20
2022-12-04T07:08:06.123Z,6.67
2022-12-04T07:12:09.151Z,6.20
2022-12-04T07:16:15.416Z,6.27
2022-12-04T07:20:18.220Z,5.67
2022-12-04T07:24:22.298Z,6.30
2022-12-04T07:28:25.108Z,6.93
2022-12-04T07:32:27.962Z,6.90
2022-12-04T07:36:30.741Z,6.00
2022-12-04T07:40:34.825Z,6.00
2022-12-04T07:44:37.545Z,5.43
2022-12-04T07:48:40.477Z,5.93
2022-12-04T07:52:43.213Z,6.87
2022-12-04T07:56:47.364Z,6.50
2022-12-04T08:00:50.562Z,6.17
2022-12-04T08:04:53.509Z,5.87
2022-12-04T08:08:57.313Z,6.20
2022-12-04T08:13:01.577Z,5.90
2022-12-04T08:17:04.968Z,5.90
2022-12-04T08:21:09.722Z,6.33
2022-12-04T08:25:12.601Z,6.30
2022-12-04T08:29:16.746Z,6.30
2022-12-04T08:33:19.572Z,7.13
2022-12-04T08:37:22.254Z,6.93
2022-12-04T08:41:26.209Z,6.43
2022-12-04T08:45:30.555Z,7.30
2022-12-04T08:49:33.696Z,7.03
2022-12-04T08:53:37.324Z,6.97
2022-12-04T08:57:40.343Z,7.00
2022-12-04T09:01:44.398Z,5.90
2022-12-04T09:05:47.328Z,7.00
2022-12-04T09:09:50.019Z,9.50
2022-12-04T09:13:53.069Z,6.10
2022-12-04T09:17:57.318Z,6.43
2022-12-04T09:21:59.923Z,7.93
2022-12-04T09:26:03.222Z,6.93
2022-12-04T09:30:06.858Z,6.43
2022-12-04T09:34:11.420Z,6.80
2022-12-04T09:38:14.119Z,7.27
2022-12-04T09:42:26.685Z,6.03
2022-12-04T09:46:32.931Z,5.97
2022-12-04T09:50:40.433Z,9.17
2022-12-04T09:54:44.577Z,8.53
2022-12-04T09:58:50.839Z,6.13
2022-12-04T10:02:57.393Z,6.00
2022-12-04T10:07:06.620Z,6.20
2022-12-04T10:11:14.078Z,7.67
2022-12-04T10:15:31.159Z,6.73
2022-12-04T10:19:38.858Z,8.67
2022-12-04T10:23:52.123Z,7.17
2022-12-04T10:27:57.627Z,7.00
2022-12-04T10:32:17.047Z,5.83
2022-12-04T10:36:22.421Z,6.07
2022-12-04T10:40:29.475Z,6.47
2022-12-04T10:44:32.209Z,8.20
2022-12-04T10:48:37.049Z,6.20
2022-12-04T10:52:39.954Z,12.37
2022-12-04T10:56:53.329Z,6.50
2022-12-04T11:01:02.713Z,7.40
2022-12-04T11:05:08.487Z,7.13
2022-12-04T11:09:22.271Z,6.57
2022-12-04T11:13:26.334Z,6.40
2022-12-04T11:17:29.149Z,6.07
2022-12-04T11:21:32.452Z,6.33
2022-12-04T11:25:38.092Z,6.70
2022-12-04T11:29:44.240Z,8.10
2022-12-04T11:33:49.607Z,7.37
2022-12-04T11:37:55.358Z,8.47
2022-12-04T11:42:03.062Z,5.50
2022-12-04T11:46:07.844Z,5.20
2022-12-04T11:50:15.385Z,6.47
2022-12-04T11:54:24.269Z,5.60
2022-12-04T11:58:51.793Z,5.13
2022-12-04T12:03:11.516Z,6.20
2022-12-04T12:07:24.274Z,5.70
2022-12-04T12:11:31.303Z,6.67
2022-12-04T12:15:41.008Z,5.30
2022-12-04T12:20:06.554Z,5.50
2022-12-04T12:24:18.298Z,4.73
2022-12-04T12:28:30.516Z,7.07
2022-12-04T12:32:42.567Z,5.30
2022-12-04T12:36:49.207Z,5.57
2022-12-04T12:40:56.035Z,5.00
2022-12-04T12:45:02.999Z,4.83
2022-12-04T12:49:10.679Z,6.33
2022-12-04T12:53:17.914Z,5.87
2022-12-04T12:57:23.277Z,5.33
2022-12-04T13:01:31.152Z,6.60
2022-12-04T13:05:36.959Z,5.43
2022-12-04T13:09:43.668Z,6.20
2022-12-04T13:13:48.883Z,5.17
2022-12-04T13:17:53.322Z,6.30
2022-12-04T13:22:02.329Z,6.40
2022-12-04T13:26:11.542Z,6.37
2022-12-04T13:30:17.912Z,5.83
2022-12-04T13:34:40.610Z,5.97
2022-12-04T13:38:58.013Z,5.50
2022-12-04T13:43:15.506Z,6.60
2022-12-04T13:47:28.124Z,6.93
2022-12-04T13:51:38.824Z,6.57
2022-12-04T13:55:41.715Z,6.10
2022-12-04T13:59:46.498Z,5.93
2022-12-04T14:03:50.768Z,5.90
2022-12-04T14:08:06.884Z,8.47
2022-12-04T14:12:13.824Z,6.97
2022-12-04T14:16:23.655Z,7.30
2022-12-04T14:20:28.955Z,6.87
2022-12-04T14:24:35.959Z,6.00
2022-12-04T14:28:42.681Z,6.23
2022-12-04T14:32:48.128Z,6.67
2022-12-04T14:36:52.908Z,6.10
2022-12-04T14:40:58.159Z,7.33
2022-12-04T14:45:02.252Z,6.77
2022-12-04T14:49:18.349Z,6.77
2022-12-04T14:53:31.370Z,7.70
2022-12-04T14:57:46.874Z,6.60
2022-12-04T15:01:50.859Z,9.03
2022-12-04T15:06:02.702Z,7.43
2022-12-04T15:10:37.636Z,7.60
2022-12-04T15:14:41.958Z,6.73
2022-12-04T15:18:54.522Z,6.70
2022-12-04T15:22:58.838Z,7.10
2022-12-04T15:27:01.833Z,7.77
2022-12-04T15:31:06.935Z,6.57
2022-12-04T15:35:14.127Z,7.90
2022-12-04T15:39:20.764Z,7.90
2022-12-04T15:43:28.352Z,7.30
2022-12-04T15:47:33.175Z,9.07
2022-12-04T15:51:35.934Z,7.60
2022-12-04T15:55:41.473Z,7.93
2022-12-04T15:59:49.891Z,7.50
2022-12-04T16:03:54.412Z,8.00
2022-12-04T16:07:59.810Z,8.43
2022-12-04T16:12:05.780Z,8.63
2022-12-04T16:16:12.403Z,8.10
2022-12-04T16:20:15.268Z,8.20
2022-12-04T16:24:18.086Z,8.47
2022-12-04T16:28:22.153Z,7.30
2022-12-04T16:32:29.106Z,7.80
2022-12-04T16:36:32.141Z,8.17
2022-12-04T16:40:34.897Z,7.30
2022-12-04T16:44:40.575Z,8.60
2022-12-04T16:48:43.965Z,8.20
2022-12-04T16:52:46.869Z,7.70
2022-12-04T16:56:49.551Z,8.43
2022-12-04T17:00:55.831Z,8.90
2022-12-04T17:04:58.712Z,8.50
2022-12-04T17:09:01.323Z,8.70
2022-12-04T17:13:04.273Z,8.70
2022-12-04T17:17:08.274Z,7.90
2022-12-04T17:21:13.228Z,8.23
2022-12-04T17:25:16.745Z,9.93
2022-12-04T17:29:19.531Z,10.07
2022-12-04T17:33:23.533Z,12.90
2022-12-04T17:37:26.745Z,13.50
2022-12-04T17:41:29.804Z,13.73
2022-12-04T17:45:32.747Z,14.20
2022-12-04T17:49:37.299Z,11.60
2022-12-04T17:53:40.026Z,9.37
2022-12-04T17:57:42.675Z,8.67
2022-12-04T18:01:45.717Z,11.10
2022-12-04T18:05:50.058Z,12.00
2022-12-04T18:09:52.691Z,10.50
2022-12-04T18:13:56.929Z,9.20
2022-12-04T18:17:59.887Z,10.80
2022-12-04T18:22:03.898Z,9.50
2022-12-04T18:26:08.331Z,10.63
2022-12-04T18:30:12.539Z,17.07
2022-12-04T18:34:15.664Z,9.20
2022-12-04T18:38:19.829Z,8.90
2022-12-04T18:42:22.501Z,8.50
2022-12-04T18:46:26.043Z,8.63
2022-12-04T18:50:30.425Z,8.93
2022-12-04T18:54:34.581Z,9.73
2022-12-04T18:58:37.280Z,9.43
2022-12-04T19:02:39.989Z,8.97
2022-12-04T19:06:44.046Z,9.13
2022-12-04T19:10:48.158Z,10.73
2022-12-04T19:14:50.798Z,17.53
2022-12-04T19:18:53.556Z,27.17
2022-12-04T19:22:56.250Z,13.37
2022-12-04T19:27:01.704Z,10.07
2022-12-04T19:31:05.171Z,10.07
2022-12-04T19:35:08.489Z,11.77
2022-12-04T19:39:11.300Z,11.63
2022-12-04T19:43:15.704Z,14.13
2022-12-04T19:47:18.913Z,14.40
2022-12-04T19:51:22.804Z,16.43
2022-12-04T19:55:25.457Z,13.40
2022-12-04T19:59:35.991Z,11.87
2022-12-04T20:03:39.980Z,12.27
2022-12-04T20:07:42.679Z,12.50
2022-12-04T20:11:45.353Z,13.57
2022-12-04T20:15:49.593Z,13.77
2022-12-04T20:19:52.294Z,12.00
2022-12-04T20:23:55.228Z,12.50
2022-12-04T20:27:57.876Z,12.80
2022-12-04T20:32:01.923Z,12.03
2022-12-04T20:36:04.828Z,12.50
2022-12-04T20:40:08.622Z,11.13
2022-12-04T20:44:15.234Z,11.90
2022-12-04T20:48:19.245Z,13.50
2022-12-04T20:52:21.932Z,14.97
2022-12-04T20:56:25.860Z,15.20
2022-12-04T21:00:28.669Z,12.67
2022-12-04T21:04:32.777Z,12.83
2022-12-04T21:08:54.958Z,12.77
2022-12-04T21:13:15.304Z,12.17
2022-12-04T21:17:19.742Z,12.10
2022-12-04T21:21:24.022Z,12.13
2022-12-04T21:25:27.695Z,11.37
2022-12-04T21:29:30.516Z,11.63
2022-12-04T21:33:34.082Z,12.63
2022-12-04T21:37:38.153Z,10.97
2022-12-04T21:41:58.415Z,11.30
2022-12-04T21:46:08.869Z,10.80
2022-12-04T21:50:12.065Z,10.40
2022-12-04T21:54:16.389Z,10.53
2022-12-04T21:58:19.520Z,10.90
2022-12-04T22:02:22.334Z,10.93
2022-12-04T22:06:26.353Z,11.63
2022-12-04T22:10:30.670Z,12.73
2022-12-04T22:14:33.323Z,12.83
2022-12-04T22:18:36.344Z,12.70
2022-12-04T22:22:38.973Z,11.50
2022-12-04T22:26:43.346Z,12.03
2022-12-04T22:30:46.024Z,11.43
2022-12-04T22:34:48.943Z,11.17
2022-12-04T22:39:08.683Z,11.27
2022-12-04T22:43:13.586Z,10.80
2022-12-04T22:47:16.588Z,11.47
2022-12-04T22:51:20.489Z,10.43
2022-12-04T22:55:23.153Z,10.73
2022-12-04T22:59:27.153Z,11.93
2022-12-04T23:03:30.210Z,11.70
2022-12-04T23:07:32.980Z,11.80
2022-12-04T23:11:36.397Z,11.90
2022-12-04T23:15:40.547Z,12.10
2022-12-04T23:19:43.211Z,11.87
2022-12-04T23:23:46.785Z,11.80
2022-12-04T23:27:49.565Z,12.07
2022-12-04T23:31:54.180Z,12.10
2022-12-04T23:35:58.612Z,12.27
2022-12-04T23:40:01.298Z,12.47
2022-12-04T23:44:04.106Z,12.63
2022-12-04T23:48:08.439Z,12.73
2022-12-04T23:52:11.393Z,12.10
2022-12-04T23:56:15.868Z,13.23
